Tor Futura — OZZE2 — position and weather

sailwx.info

Track history (hours):
 
Tides and Currents Weather Stations Pressure Air Temp Water Temp Dewpoint Dewpoint Depression Visibility Wind Speed Wind Dir Waves Ship Positions

Tor Futura

Last reported at 2017-Jan-23 09:09 UTC. Time now 2017-Jan-24 08:59 UTC.
Position N 38°36' E 008°40'.

Length 183.1 m; beam 25.2 m; draft 7.8 m.

Type: Ship. MMSI: 219927000.

Date/timePositionNaut miles runAvg speedWind from/ knotsBaromVisibWave heightAir tempDewpointWater temp
2017-Jan-23 09:09N 38°36' E 008°40'31313.6
2017-Jan-22 10:07N 43°09' E 005°16'814.7
2017-Jan-22 09:34N 43°15' E 005°09'10 9.5
2017-Jan-22 08:31N 43°19' E 005°22'0 0.0
2017-Jan-22 07:10N 43°19' E 005°22'0 0.0
2017-Jan-22 06:25N 43°19' E 005°22'0 0.0
2017-Jan-22 04:28N 43°19' E 005°22'0 0.0
2017-Jan-22 01:31N 43°19' E 005°22'0 0.0
2017-Jan-22 00:31N 43°19' E 005°22'0 0.0
2017-Jan-21 22:19N 43°19' E 005°22'0 0.0
2017-Jan-21 21:22N 43°19' E 005°22'0 0.0
2017-Jan-21 20:25N 43°19' E 005°22'0 0.0
2017-Jan-21 19:25N 43°19' E 005°22'0 0.0
2017-Jan-21 18:19N 43°19' E 005°22'0 0.0
2017-Jan-21 17:13N 43°19' E 005°22'0 0.0
2017-Jan-21 16:25N 43°19' E 005°22'0 0.0
2017-Jan-21 14:16N 43°19' E 005°22'0 0.0
2017-Jan-21 13:16N 43°19' E 005°22'0 0.0
2017-Jan-21 11:04N 43°19' E 005°22'0 0.0
2017-Jan-21 10:31N 43°19' E 005°22'0 0.0
2017-Jan-21 09:31N 43°19' E 005°22'0 0.0
2017-Jan-21 08:28N 43°19' E 005°22'0 0.0
2017-Jan-21 07:10N 43°19' E 005°22'0 0.0
2017-Jan-21 06:10N 43°19' E 005°22'1 0.9
2017-Jan-21 05:33N 43°19' E 005°21'1010.1
2017-Jan-21 04:34N 43°13' E 005°10'31415.5
2017-Jan-20 08:19N 38°41' E 008°38'269 5.7
2017-Jan-18 09:28N 43°07' E 009°22'1616.8
2017-Jan-18 08:33N 43°13' E 009°02'5614.0
2017-Jan-18 04:32N 43°10' E 007°45'1212.2
2017-Jan-18 03:33N 43°05' E 007°30'1412.4
2017-Jan-18 02:24N 42°58' E 007°13'9215.7
2017-Jan-17 20:33N 43°15' E 005°09'1010.0
2017-Jan-17 19:33N 43°19' E 005°22'0 0.0
2017-Jan-17 18:11N 43°19' E 005°22'0 0.0
2017-Jan-17 17:11N 43°19' E 005°22'0 0.0
2017-Jan-17 16:29N 43°19' E 005°22'0 0.0
2017-Jan-17 15:17N 43°19' E 005°22'0 0.0
2017-Jan-17 14:29N 43°19' E 005°22'0 0.0
2017-Jan-17 13:32N 43°19' E 005°22'0 0.0
2017-Jan-17 11:32N 43°19' E 005°22'0 0.0
2017-Jan-17 10:17N 43°19' E 005°22'0 0.0
2017-Jan-17 09:20N 43°19' E 005°22'0 0.0
2017-Jan-17 08:23N 43°19' E 005°22'0 0.0
2017-Jan-17 06:23N 43°19' E 005°22'0 0.0
2017-Jan-17 03:14N 43°19' E 005°22'0 0.0
2017-Jan-16 18:05N 43°19' E 005°22'0 0.0
2017-Jan-16 17:11N 43°19' E 005°22'0 0.0
2017-Jan-16 15:29N 43°19' E 005°22'0 0.0
2017-Jan-16 11:29N 43°19' E 005°22'1 1.4
2017-Jan-16 10:34N 43°20' E 005°21'9 8.8
2017-Jan-16 09:33N 43°15' E 005°11'  
2017-Jan-13 17:14N 38°36' E 008°40'  
Track history (hours):
 
Tides and Currents Weather Stations Pressure Air Temp Water Temp Dewpoint Dewpoint Depression Visibility Wind Speed Wind Dir Waves Ship Positions

Tor Futura

Last reported at 2017-Jan-23 09:09 UTC. Time now 2017-Jan-24 08:59 UTC.
Position N 38°36' E 008°40'.

Length 183.1 m; beam 25.2 m; draft 7.8 m.

Type: Ship. MMSI: 219927000.

Date/timePositionNaut miles runAvg speedWind from/ knotsBaromVisibWave heightAir tempDewpointWater temp
2017-Jan-23 09:09N 38°36' E 008°40'31313.6
2017-Jan-22 10:07N 43°09' E 005°16'814.7
2017-Jan-22 09:34N 43°15' E 005°09'10 9.5
2017-Jan-22 08:31N 43°19' E 005°22'0 0.0
2017-Jan-22 07:10N 43°19' E 005°22'0 0.0
2017-Jan-22 06:25N 43°19' E 005°22'0 0.0
2017-Jan-22 04:28N 43°19' E 005°22'0 0.0
2017-Jan-22 01:31N 43°19' E 005°22'0 0.0
2017-Jan-22 00:31N 43°19' E 005°22'0 0.0
2017-Jan-21 22:19N 43°19' E 005°22'0 0.0
2017-Jan-21 21:22N 43°19' E 005°22'0 0.0
2017-Jan-21 20:25N 43°19' E 005°22'0 0.0
2017-Jan-21 19:25N 43°19' E 005°22'0 0.0
2017-Jan-21 18:19N 43°19' E 005°22'0 0.0
2017-Jan-21 17:13N 43°19' E 005°22'0 0.0
2017-Jan-21 16:25N 43°19' E 005°22'0 0.0
2017-Jan-21 14:16N 43°19' E 005°22'0 0.0
2017-Jan-21 13:16N 43°19' E 005°22'0 0.0
2017-Jan-21 11:04N 43°19' E 005°22'0 0.0
2017-Jan-21 10:31N 43°19' E 005°22'0 0.0
2017-Jan-21 09:31N 43°19' E 005°22'0 0.0
2017-Jan-21 08:28N 43°19' E 005°22'0 0.0
2017-Jan-21 07:10N 43°19' E 005°22'0 0.0
2017-Jan-21 06:10N 43°19' E 005°22'1 0.9
2017-Jan-21 05:33N 43°19' E 005°21'1010.1
2017-Jan-21 04:34N 43°13' E 005°10'31415.5
2017-Jan-20 08:19N 38°41' E 008°38'269 5.7
2017-Jan-18 09:28N 43°07' E 009°22'1616.8
2017-Jan-18 08:33N 43°13' E 009°02'5614.0
2017-Jan-18 04:32N 43°10' E 007°45'1212.2
2017-Jan-18 03:33N 43°05' E 007°30'1412.4
2017-Jan-18 02:24N 42°58' E 007°13'9215.7
2017-Jan-17 20:33N 43°15' E 005°09'1010.0
2017-Jan-17 19:33N 43°19' E 005°22'0 0.0
2017-Jan-17 18:11N 43°19' E 005°22'0 0.0
2017-Jan-17 17:11N 43°19' E 005°22'0 0.0
2017-Jan-17 16:29N 43°19' E 005°22'0 0.0
2017-Jan-17 15:17N 43°19' E 005°22'0 0.0
2017-Jan-17 14:29N 43°19' E 005°22'0 0.0
2017-Jan-17 13:32N 43°19' E 005°22'0 0.0
2017-Jan-17 11:32N 43°19' E 005°22'0 0.0
2017-Jan-17 10:17N 43°19' E 005°22'0 0.0
2017-Jan-17 09:20N 43°19' E 005°22'0 0.0
2017-Jan-17 08:23N 43°19' E 005°22'0 0.0
2017-Jan-17 06:23N 43°19' E 005°22'0 0.0
2017-Jan-17 03:14N 43°19' E 005°22'0 0.0
2017-Jan-16 18:05N 43°19' E 005°22'0 0.0
2017-Jan-16 17:11N 43°19' E 005°22'0 0.0
2017-Jan-16 15:29N 43°19' E 005°22'0 0.0
2017-Jan-16 11:29N 43°19' E 005°22'1 1.4
2017-Jan-16 10:34N 43°20' E 005°21'9 8.8
2017-Jan-16 09:33N 43°15' E 005°11'  
2017-Jan-13 17:14N 38°36' E 008°40'  

Dump ship's entire track history